TimeCDT,TemperatureF,Dew PointF,Humidity,Sea Level PressureIn,VisibilityMPH,Wind Direction,Wind SpeedMPH,Gust SpeedMPH,PrecipitationIn,Events,Conditions,WindDirDegrees,DateUTC
12:52 AM,64.0,59.0,84,29.94,10.0,Calm,Calm,-,N/A,,Clear,0,2013-07-20 05:52:00
1:52 AM,62.1,59.0,90,29.93,10.0,South,4.6,-,N/A,,Clear,170,2013-07-20 06:52:00
2:52 AM,62.1,59.0,90,29.92,10.0,Calm,Calm,-,N/A,,Clear,0,2013-07-20 07:52:00
3:52 AM,61.0,57.9,90,29.91,10.0,Calm,Calm,-,N/A,,Clear,0,2013-07-20 08:52:00
4:52 AM,59.0,55.0,87,29.91,10.0,Calm,Calm,-,N/A,,Clear,0,2013-07-20 09:52:00
5:52 AM,55.9,54.0,93,29.93,10.0,Calm,Calm,-,N/A,,Clear,0,2013-07-20 10:52:00
6:52 AM,64.0,60.1,87,29.96,10.0,NNW,5.8,-,N/A,,Clear,340,2013-07-20 11:52:00
7:52 AM,66.9,61.0,81,29.98,10.0,North,8.1,-,N/A,,Clear,360,2013-07-20 12:52:00
8:52 AM,73.9,61.0,64,29.98,10.0,NNW,8.1,-,N/A,,Clear,340,2013-07-20 13:52:00
9:52 AM,72.0,61.0,68,29.97,10.0,West,4.6,-,N/A,,Clear,280,2013-07-20 14:52:00
10:52 AM,73.9,61.0,64,29.96,10.0,South,9.2,-,N/A,,Clear,190,2013-07-20 15:52:00
11:52 AM,75.0,63.0,66,29.95,10.0,South,8.1,-,N/A,,Clear,190,2013-07-20 16:52:00
12:52 PM,75.9,63.0,64,29.94,10.0,SW,9.2,-,0.00,Rain,Light Rain,220,2013-07-20 17:52:00
1:52 PM,75.0,61.0,62,29.89,10.0,North,17.3,25.3,0.00,Rain,Light Rain,360,2013-07-20 18:52:00
1:59 PM,78.8,62.6,57,29.92,10.0,NE,8.1,24.2,0.00,,Scattered Clouds,40,2013-07-20 18:59:00
2:52 PM,78.1,61.0,56,29.94,10.0,SSW,4.6,-,0.00,,Clear,200,2013-07-20 19:52:00
3:52 PM,78.1,61.0,56,29.92,10.0,Calm,Calm,-,N/A,,Clear,0,2013-07-20 20:52:00
4:52 PM,82.9,62.1,49,29.89,10.0,Variable,3.5,-,N/A,,Clear,0,2013-07-20 21:52:00
5:52 PM,84.0,63.0,49,29.90,10.0,West,3.5,-,N/A,,Clear,270,2013-07-20 22:52:00
6:52 PM,82.0,62.1,51,29.89,10.0,SE,3.5,-,N/A,,Clear,130,2013-07-20 23:52:00
7:52 PM,80.1,63.0,56,29.87,10.0,East,4.6,-,N/A,,Clear,90,2013-07-21 00:52:00
8:52 PM,73.0,64.0,73,29.86,10.0,Calm,Calm,-,N/A,,Clear,0,2013-07-21 01:52:00
9:52 PM,73.0,64.9,76,29.89,10.0,Calm,Calm,-,N/A,,Clear,0,2013-07-21 02:52:00
10:52 PM,69.1,63.0,81,29.90,10.0,Calm,Calm,-,N/A,,Partly Cloudy,0,2013-07-21 03:52:00
11:52 PM,72.0,64.9,78,29.90,10.0,East,3.5,-,N/A,,Mostly Cloudy,90,2013-07-21 04:52:00